Time;durP1;ratioP1;P1;durP2;ratioP2;P2;SDS_P1;SDS_P2;PMS_P1;PMS_P2;Temp;Humidity;BMP_temperature;BMP_pressure;BME280_temperature;BME280_humidity;BME280_pressure;Samples;Min_cycle;Max_cycle;Signal;HPM_P1;HPM_P2
2023/03/08 00:01:21;;;;;;;13.82;4.40;;;-0.70;99.90;;;;;;7360385;19;21508;-62
2023/03/08 00:03:51;;;;;;;5.07;3.53;;;-0.60;99.90;;;;;;7369423;19;20090;-62
2023/03/08 00:06:17;;;;;;;9.18;3.90;;;-0.60;99.90;;;;;;7368610;19;20014;-62
2023/03/08 00:08:44;;;;;;;8.50;3.50;;;-0.60;99.90;;;;;;7369010;19;20507;-62
2023/03/08 00:11:12;;;;;;;9.55;3.50;;;-0.60;99.90;;;;;;7367888;19;20030;-62
2023/03/08 00:13:38;;;;;;;7.13;3.88;;;-0.70;99.90;;;;;;7366159;19;20528;-67
2023/03/08 00:16:08;;;;;;;8.27;3.80;;;-0.70;99.90;;;;;;7367849;19;20022;-67
2023/03/08 00:18:35;;;;;;;5.13;3.60;;;-0.70;99.90;;;;;;7369930;19;20110;-67
2023/03/08 00:21:07;;;;;;;5.40;3.60;;;-0.70;99.90;;;;;;7369149;19;20033;-66
2023/03/08 00:23:34;;;;;;;5.53;3.65;;;-0.60;99.90;;;;;;7366719;19;20116;-67
2023/03/08 00:26:01;;;;;;;5.20;3.45;;;-0.70;99.90;;;;;;7365124;19;20596;-67
2023/03/08 00:28:27;;;;;;;9.43;4.20;;;-0.70;99.90;;;;;;7366646;19;20018;-67
2023/03/08 00:31:06;;;;;;;9.00;4.10;;;-0.70;99.90;;;;;;7364227;19;20022;-67
2023/03/08 00:33:35;;;;;;;5.75;4.10;;;-0.70;99.90;;;;;;7364071;19;20358;-67
2023/03/08 00:36:04;;;;;;;8.10;4.20;;;-0.80;99.90;;;;;;7365200;19;20022;-66
2023/03/08 00:38:35;;;;;;;9.00;4.57;;;-0.80;99.90;;;;;;7362773;19;20018;-66
2023/03/08 00:41:02;;;;;;;7.95;4.88;;;-0.80;99.90;;;;;;7363928;19;20465;-66
2023/03/08 00:43:32;;;;;;;9.85;4.68;;;-0.90;99.90;;;;;;7363965;19;20096;-67
2023/03/08 00:45:59;;;;;;;7.18;4.68;;;-0.90;99.90;;;;;;7363245;19;20019;-67
2023/03/08 00:48:25;;;;;;;7.40;4.82;;;-0.90;99.90;;;;;;7366310;19;20082;-67
2023/03/08 00:50:52;;;;;;;9.00;5.50;;;-0.90;99.90;;;;;;7363924;19;20037;-62
2023/03/08 00:53:19;;;;;;;8.60;5.18;;;-0.90;99.90;;;;;;7368135;19;20018;-62
2023/03/08 00:55:53;;;;;;;9.88;6.05;;;-0.80;99.90;;;;;;7364021;19;20022;-62
2023/03/08 00:58:19;;;;;;;;;;;-0.80;99.90;;;;;;7367070;19;20038;-62
2023/03/08 01:00:47;;;;;;;10.75;5.35;;;-0.80;99.90;;;;;;7364764;19;20863;-62
2023/03/08 01:03:14;;;;;;;7.20;5.20;;;-0.80;99.90;;;;;;7366325;19;20026;-62
2023/03/08 01:05:43;;;;;;;8.82;5.40;;;-0.80;99.90;;;;;;7366513;19;20022;-62
2023/03/08 01:08:12;;;;;;;9.52;5.07;;;-0.80;99.90;;;;;;7366485;19;20014;-62
2023/03/08 01:10:58;;;;;;;9.77;5.13;;;-0.80;99.90;;;;;;7363416;19;20025;-62
2023/03/08 01:13:26;;;;;;;10.23;5.53;;;-0.80;99.90;;;;;;7367816;19;20019;-62
2023/03/08 01:15:53;;;;;;;8.52;5.53;;;-0.80;99.90;;;;;;7366942;19;20040;-62
2023/03/08 01:18:20;;;;;;;7.45;5.00;;;-0.80;99.90;;;;;;7375092;19;20496;-62
2023/03/08 01:20:58;;;;;;;9.50;5.88;;;-0.80;99.90;;;;;;7374607;19;20022;-62
2023/03/08 01:23:28;;;;;;;7.70;5.50;;;-0.80;99.90;;;;;;7371933;19;20026;-62
2023/03/08 01:26:15;;;;;;;9.15;5.63;;;-0.80;99.90;;;;;;7371622;19;20039;-62
2023/03/08 01:32:29;;;;;;;10.82;7.00;;;-0.90;99.90;;;;;;7372718;19;20094;-66
2023/03/08 01:35:04;;;;;;;10.20;6.40;;;-0.90;99.90;;;;;;7372542;19;20019;-66
2023/03/08 01:38:18;;;;;;;10.50;6.60;;;-0.90;99.90;;;;;;7374937;19;20018;-66
2023/03/08 01:40:44;;;;;;;7.80;5.72;;;-1.00;99.90;;;;;;7374578;19;20010;-66
2023/03/08 01:43:27;;;;;;;10.45;6.97;;;-1.00;99.90;;;;;;7373689;19;20029;-66
2023/03/08 01:46:12;;;;;;;9.50;7.93;;;-1.00;99.90;;;;;;7372916;19;20007;-66
2023/03/08 01:49:00;;;;;;;12.90;9.40;;;-1.00;99.90;;;;;;7371708;19;20500;-66
2023/03/08 01:51:50;;;;;;;14.85;8.95;;;-1.00;99.90;;;;;;7367806;19;20366;-66
2023/03/08 01:54:27;;;;;;;15.70;10.20;;;-0.90;99.90;;;;;;7371648;19;20034;-66
2023/03/08 01:57:01;;;;;;;17.58;10.75;;;-0.90;99.90;;;;;;7372239;19;20537;-66
2023/03/08 01:59:31;;;;;;;14.52;10.95;;;-0.90;99.90;;;;;;7370898;19;20896;-66
2023/03/08 02:02:03;;;;;;;15.18;12.52;;;-0.90;99.90;;;;;;7369608;19;20025;-66
2023/03/08 02:04:40;;;;;;;17.13;12.32;;;-0.90;99.90;;;;;;7367791;19;20470;-66
2023/03/08 02:07:09;;;;;;;14.27;11.85;;;-0.90;99.90;;;;;;7365077;19;20098;-66
2023/03/08 02:09:36;;;;;;;16.58;12.20;;;-0.90;99.90;;;;;;7369231;19;20028;-66
2023/03/08 02:12:07;;;;;;;17.85;12.73;;;-0.90;99.90;;;;;;7371073;19;20042;-67
2023/03/08 02:14:34;;;;;;;16.55;12.32;;;-0.90;99.90;;;;;;7367508;19;20057;-66
2023/03/08 02:17:00;;;;;;;19.02;12.32;;;-0.90;99.90;;;;;;7371957;19;20527;-66
2023/03/08 02:19:41;;;;;;;14.93;11.25;;;-1.00;99.90;;;;;;7369551;19;20025;-66
2023/03/08 02:22:10;;;;;;;13.70;12.27;;;-0.90;99.90;;;;;;7371054;19;20049;-66
2023/03/08 02:24:36;;;;;;;17.65;13.43;;;-1.00;99.90;;;;;;7370233;19;20018;-66
2023/03/08 02:27:08;;;;;;;15.90;12.30;;;-1.00;99.90;;;;;;7369566;19;20022;-66
2023/03/08 02:29:34;;;;;;;17.30;13.68;;;-0.90;99.90;;;;;;7362056;19;20014;-62
2023/03/08 02:32:00;;;;;;;17.30;13.15;;;-1.00;99.90;;;;;;7368885;19;20030;-61
2023/03/08 02:34:27;;;;;;;14.88;13.05;;;-0.90;99.90;;;;;;7370351;19;20023;-66
2023/03/08 02:36:53;;;;;;;14.52;12.57;;;-1.00;99.90;;;;;;7367728;19;20019;-66
2023/03/08 02:39:19;;;;;;;16.95;12.77;;;-1.00;99.90;;;;;;7369144;19;20022;-65
2023/03/08 02:41:46;;;;;;;14.45;12.80;;;-0.90;99.90;;;;;;7369103;19;20015;-66
2023/03/08 02:44:13;;;;;;;17.20;13.63;;;-1.00;99.90;;;;;;7371097;19;20027;-61
2023/03/08 02:46:39;;;;;;;17.15;14.30;;;-1.00;99.90;;;;;;7369588;19;20026;-66
2023/03/08 02:49:09;;;;;;;19.50;13.50;;;-1.00;99.90;;;;;;7370391;19;20044;-66
2023/03/08 02:51:35;;;;;;;17.42;12.80;;;-1.00;99.90;;;;;;7367945;19;20946;-66
2023/03/08 02:54:02;;;;;;;17.13;13.43;;;-1.00;99.90;;;;;;7368253;19;20019;-66
2023/03/08 02:56:28;;;;;;;18.55;14.68;;;-1.00;99.90;;;;;;7366292;19;20033;-66
2023/03/08 02:58:55;;;;;;;18.98;13.90;;;-1.00;99.90;;;;;;7368626;19;20029;-66
2023/03/08 03:01:23;;;;;;;16.10;13.20;;;-1.00;99.90;;;;;;7366157;19;20029;-66
2023/03/08 03:03:54;;;;;;;15.35;13.63;;;-1.00;99.90;;;;;;7369049;19;20442;-66
2023/03/08 03:06:21;;;;;;;17.48;14.15;;;-0.90;99.90;;;;;;7367085;19;20040;-66
2023/03/08 03:08:51;;;;;;;15.20;12.38;;;-1.00;99.90;;;;;;7366360;19;20018;-66
2023/03/08 03:11:24;;;;;;;13.90;12.35;;;-1.00;99.90;;;;;;7367600;19;20086;-66
2023/03/08 03:13:56;;;;;;;20.05;13.90;;;-1.00;99.90;;;;;;7365938;19;20020;-66
2023/03/08 03:16:26;;;;;;;15.70;13.70;;;-1.10;99.90;;;;;;7365835;19;20022;-66
2023/03/08 03:18:54;;;;;;;18.15;14.05;;;-1.10;99.90;;;;;;7366437;19;20588;-66
2023/03/08 03:21:22;;;;;;;17.83;13.73;;;-1.20;99.90;;;;;;7368599;19;20025;-66
2023/03/08 03:23:49;;;;;;;17.10;13.80;;;-1.20;99.90;;;;;;7368491;19;20023;-66
2023/03/08 03:26:20;;;;;;;16.67;13.82;;;-1.20;99.90;;;;;;7365277;19;20033;-66
2023/03/08 03:28:53;;;;;;;17.48;14.20;;;-1.20;99.90;;;;;;7367380;19;20062;-66
2023/03/08 03:31:22;;;;;;;17.88;14.07;;;-1.10;99.90;;;;;;7366639;19;20797;-66
2023/03/08 03:33:49;;;;;;;17.63;14.05;;;-1.20;99.90;;;;;;7367152;19;20489;-66
2023/03/08 03:36:19;;;;;;;17.58;13.63;;;-1.20;99.90;;;;;;7365676;19;21270;-66
2023/03/08 03:38:47;;;;;;;17.58;15.10;;;-1.20;99.90;;;;;;7367475;19;20014;-66
2023/03/08 03:41:19;;;;;;;18.30;15.43;;;-1.20;99.90;;;;;;7365930;19;20090;-66
2023/03/08 03:43:48;;;;;;;15.95;14.13;;;-1.20;99.90;;;;;;7364595;19;20096;-65
2023/03/08 03:46:17;;;;;;;18.58;14.52;;;-1.20;99.90;;;;;;7373676;19;20014;-66
2023/03/08 03:48:46;;;;;;;17.92;14.13;;;-1.20;99.90;;;;;;7358778;19;20675;-67
2023/03/08 03:51:20;;;;;;;17.30;15.50;;;-1.20;99.90;;;;;;7357756;19;20011;-61
2023/03/08 03:53:51;;;;;;;20.25;14.93;;;-1.20;99.90;;;;;;7362996;19;20026;-66
2023/03/08 03:56:22;;;;;;;19.23;13.50;;;-1.20;99.90;;;;;;7358248;19;20026;-66
2023/03/08 03:58:52;;;;;;;16.05;14.45;;;-1.20;99.90;;;;;;7354565;19;20015;-65
2023/03/08 04:01:25;;;;;;;16.52;14.80;;;-1.20;99.90;;;;;;7357907;19;20040;-61
2023/03/08 04:03:55;;;;;;;16.60;14.60;;;-1.30;99.90;;;;;;7359509;19;20018;-65
2023/03/08 04:06:29;;;;;;;18.60;14.82;;;-1.20;99.90;;;;;;7362333;19;20370;-65
2023/03/08 04:09:00;;;;;;;20.55;15.20;;;-1.30;99.90;;;;;;7361786;19;20018;-65
2023/03/08 04:11:34;;;;;;;21.83;15.00;;;-1.30;99.90;;;;;;7361739;19;20058;-65
2023/03/08 04:14:01;;;;;;;17.38;14.68;;;-1.30;99.90;;;;;;7360275;19;20499;-65
2023/03/08 04:16:30;;;;;;;17.65;14.95;;;-1.30;99.90;;;;;;7358454;19;20034;-65
2023/03/08 04:19:02;;;;;;;17.35;15.52;;;-1.30;99.90;;;;;;7358987;19;20022;-65
2023/03/08 04:21:45;;;;;;;17.50;15.60;;;-1.40;99.90;;;;;;7355383;19;20010;-65
2023/03/08 04:24:12;;;;;;;18.33;15.55;;;-1.40;99.90;;;;;;7358163;19;20019;-65
2023/03/08 04:26:39;;;;;;;19.00;15.77;;;-1.40;99.90;;;;;;7356466;19;20503;-65
2023/03/08 04:29:09;;;;;;;19.00;15.65;;;-1.40;99.90;;;;;;7354926;19;20046;-65
2023/03/08 04:31:37;;;;;;;21.90;17.13;;;-1.40;99.90;;;;;;7358074;19;20632;-61
2023/03/08 04:34:07;;;;;;;17.92;15.98;;;-1.50;99.90;;;;;;7355951;19;20038;-65
2023/03/08 04:36:35;;;;;;;20.38;16.60;;;-1.50;99.90;;;;;;7355487;19;20086;-62
2023/03/08 04:39:01;;;;;;;17.65;15.82;;;-1.50;99.90;;;;;;7355310;19;20384;-62
2023/03/08 04:41:32;;;;;;;20.77;18.15;;;-1.50;99.90;;;;;;7356970;19;20018;-61
2023/03/08 04:44:10;;;;;;;19.10;16.15;;;-1.40;99.90;;;;;;7356549;19;20014;-62
2023/03/08 04:46:41;;;;;;;21.73;17.23;;;-1.40;99.90;;;;;;7354950;19;20014;-61
2023/03/08 04:49:10;;;;;;;21.25;19.02;;;-1.40;99.90;;;;;;7356386;19;20042;-62
2023/03/08 04:51:42;;;;;;;22.45;18.50;;;-1.40;99.90;;;;;;7355542;19;20015;-61
2023/03/08 04:54:09;;;;;;;24.90;18.48;;;-1.40;99.90;;;;;;7367439;19;20358;-61
2023/03/08 04:56:41;;;;;;;21.55;17.33;;;-1.40;99.90;;;;;;7365671;19;20022;-61
2023/03/08 04:59:09;;;;;;;20.20;16.45;;;-1.50;99.90;;;;;;7367328;19;20026;-61
2023/03/08 05:01:35;;;;;;;18.45;15.85;;;-1.60;99.90;;;;;;7366700;19;20019;-61
2023/03/08 05:04:02;;;;;;;23.45;16.83;;;-1.60;99.90;;;;;;7367432;19;20035;-61
2023/03/08 05:06:35;;;;;;;18.70;16.67;;;-1.60;99.90;;;;;;7363021;19;20011;-61
2023/03/08 05:09:01;;;;;;;18.55;16.23;;;-1.60;99.90;;;;;;7365797;19;20074;-61
2023/03/08 05:11:31;;;;;;;20.95;16.75;;;-1.60;99.90;;;;;;7369262;19;20029;-61
2023/03/08 05:13:59;;;;;;;18.27;16.38;;;-1.60;99.90;;;;;;7364845;19;20045;-61
2023/03/08 05:16:27;;;;;;;19.65;16.83;;;-1.70;99.90;;;;;;7364870;19;20029;-61
2023/03/08 05:18:54;;;;;;;19.77;17.55;;;-1.70;99.90;;;;;;7369486;19;20019;-64
2023/03/08 05:21:24;;;;;;;18.55;16.58;;;-1.70;99.90;;;;;;7366064;19;20030;-64
2023/03/08 05:23:58;;;;;;;20.60;18.08;;;-1.70;99.90;;;;;;7363654;19;20014;-64
2023/03/08 05:26:25;;;;;;;21.80;17.27;;;-1.70;99.90;;;;;;7361429;19;20019;-64
2023/03/08 05:28:52;;;;;;;22.05;17.83;;;-1.70;99.90;;;;;;7362953;19;20018;-63
2023/03/08 05:31:22;;;;;;;21.13;16.77;;;-1.70;99.90;;;;;;7363680;19;20034;-64
2023/03/08 05:33:52;;;;;;;21.00;17.65;;;-1.70;99.90;;;;;;7364830;19;20501;-65
2023/03/08 05:36:26;;;;;;;23.92;18.23;;;-1.80;99.90;;;;;;7362358;19;20832;-64
2023/03/08 05:38:56;;;;;;;20.13;18.02;;;-1.70;99.90;;;;;;7359607;19;20098;-64
2023/03/08 05:41:31;;;;;;;20.27;18.08;;;-1.70;99.90;;;;;;7365219;19;20026;-64
2023/03/08 05:44:01;;;;;;;19.50;17.23;;;-1.80;99.90;;;;;;7364338;19;20633;-64
2023/03/08 05:46:37;;;;;;;21.67;18.85;;;-1.70;99.90;;;;;;7363034;19;20018;-61
2023/03/08 05:49:05;;;;;;;20.15;18.00;;;-1.80;99.90;;;;;;7364744;19;20015;-61
2023/03/08 05:51:34;;;;;;;23.95;17.33;;;-1.80;99.90;;;;;;7358039;19;20042;-61
2023/03/08 05:54:01;;;;;;;25.75;19.10;;;-1.80;99.90;;;;;;7356273;19;20014;-60
2023/03/08 05:56:28;;;;;;;20.83;17.95;;;-1.80;99.90;;;;;;7360149;19;20584;-60
2023/03/08 05:59:03;;;;;;;20.52;18.08;;;-1.80;99.90;;;;;;7358779;19;20019;-60
2023/03/08 06:01:41;;;;;;;20.85;18.60;;;-1.80;99.90;;;;;;7362878;19;20770;-60
2023/03/08 06:04:20;;;;;;;21.85;18.90;;;-1.80;99.90;;;;;;7362184;19;20042;-60
2023/03/08 06:06:49;;;;;;;20.85;18.75;;;-1.80;99.90;;;;;;7361322;19;20843;-60
2023/03/08 06:09:15;;;;;;;23.35;19.30;;;-1.70;99.90;;;;;;7364159;19;20023;-60
2023/03/08 06:11:43;;;;;;;24.42;19.23;;;-1.70;99.90;;;;;;7361363;19;20042;-60
2023/03/08 06:14:10;;;;;;;22.75;20.35;;;-1.70;99.90;;;;;;7350294;19;20022;-60
2023/03/08 06:16:39;;;;;;;19.45;17.45;;;-1.70;99.90;;;;;;7366176;19;20087;-61
2023/03/08 06:19:05;;;;;;;23.83;18.65;;;-1.80;99.90;;;;;;7357472;19;20018;-60
2023/03/08 06:21:34;;;;;;;21.38;19.05;;;-1.80;99.90;;;;;;7357521;19;20084;-60
2023/03/08 06:24:04;;;;;;;22.45;19.08;;;-1.80;99.90;;;;;;7364069;19;20926;-63
2023/03/08 06:26:31;;;;;;;22.50;17.02;;;-1.80;99.90;;;;;;7362272;19;20584;-63
2023/03/08 06:28:57;;;;;;;19.60;16.92;;;-1.80;99.90;;;;;;7360185;19;20122;-63
2023/03/08 06:31:28;;;;;;;21.70;16.52;;;-1.80;99.90;;;;;;7359881;19;20022;-63
2023/03/08 06:33:55;;;;;;;20.75;18.58;;;-1.80;99.90;;;;;;7362741;19;20026;-63
2023/03/08 06:36:27;;;;;;;19.60;16.98;;;-1.80;99.90;;;;;;7361741;19;20026;-63
2023/03/08 06:38:54;;;;;;;18.17;16.27;;;-1.80;99.90;;;;;;7366883;19;20019;-61
2023/03/08 06:41:20;;;;;;;18.50;16.52;;;-1.80;99.90;;;;;;7365228;19;20863;-61
2023/03/08 06:43:52;;;;;;;20.98;16.48;;;-1.70;99.90;;;;;;7366988;19;20010;-60
2023/03/08 06:46:19;;;;;;;19.65;16.35;;;-1.70;99.90;;;;;;7362769;19;20029;-61
2023/03/08 06:48:46;;;;;;;18.00;16.17;;;-1.70;99.90;;;;;;7362792;19;20018;-63
2023/03/08 06:51:14;;;;;;;17.95;15.93;;;-1.70;99.90;;;;;;7361964;19;20766;-61
2023/03/08 06:53:45;;;;;;;19.90;16.50;;;-1.60;99.90;;;;;;7366762;19;20019;-60
2023/03/08 06:56:15;;;;;;;17.25;15.60;;;-1.60;99.90;;;;;;7364536;19;20014;-60
2023/03/08 06:58:42;;;;;;;16.70;14.57;;;-1.60;99.90;;;;;;7367829;19;20029;-63
2023/03/08 07:01:10;;;;;;;18.15;14.70;;;-1.50;99.90;;;;;;7365673;19;20023;-60
2023/03/08 07:03:37;;;;;;;19.05;15.05;;;-1.50;99.90;;;;;;7364631;19;20030;-61
2023/03/08 07:06:08;;;;;;;15.43;13.80;;;-1.40;99.90;;;;;;7372643;19;20022;-61
2023/03/08 07:08:36;;;;;;;15.40;13.80;;;-1.40;99.90;;;;;;7372356;19;20422;-63
2023/03/08 07:11:05;;;;;;;16.58;14.60;;;-1.30;99.90;;;;;;7375363;19;20015;-63
2023/03/08 07:13:32;;;;;;;17.00;14.30;;;-1.20;99.90;;;;;;7376010;19;20411;-62
2023/03/08 07:15:58;;;;;;;13.52;12.25;;;-1.10;99.90;;;;;;7373545;19;20034;-63
2023/03/08 07:18:25;;;;;;;15.57;13.77;;;-1.00;99.90;;;;;;7376692;19;20026;-63
2023/03/08 07:20:57;;;;;;;14.07;12.63;;;-1.00;99.90;;;;;;7369885;19;20055;-63
2023/03/08 07:23:24;;;;;;;14.00;11.57;;;-1.00;99.90;;;;;;7376769;19;20021;-61
2023/03/08 07:25:53;;;;;;;13.43;11.25;;;-0.90;99.90;;;;;;7371058;19;20067;-63
2023/03/08 07:28:23;;;;;;;16.45;12.23;;;-0.90;99.90;;;;;;7372517;19;20033;-63
2023/03/08 07:30:51;;;;;;;14.05;12.15;;;-0.80;99.90;;;;;;7362088;19;20807;-63
2023/03/08 07:33:20;;;;;;;15.88;12.85;;;-0.80;99.90;;;;;;7366919;19;20022;-62
2023/03/08 07:35:47;;;;;;;13.80;12.43;;;-0.80;99.90;;;;;;7359825;19;20434;-63
2023/03/08 07:38:13;;;;;;;13.88;12.32;;;-0.70;99.90;;;;;;7364209;19;21155;-62
2023/03/08 07:40:41;;;;;;;14.48;11.65;;;-0.50;99.90;;;;;;7363034;19;20032;-62
2023/03/08 07:43:08;;;;;;;12.45;11.15;;;-0.50;99.90;;;;;;7362887;19;20024;-62
2023/03/08 07:45:43;;;;;;;14.38;11.45;;;-0.40;99.90;;;;;;7362936;19;20026;-62
2023/03/08 07:48:10;;;;;;;15.13;11.15;;;-0.30;99.90;;;;;;7360125;19;20014;-63
2023/03/08 07:50:36;;;;;;;15.45;12.02;;;-0.30;99.90;;;;;;7362053;19;20018;-63
2023/03/08 07:53:03;;;;;;;12.18;11.02;;;-0.30;99.90;;;;;;7359423;19;20043;-61
2023/03/08 07:55:30;;;;;;;12.52;10.73;;;-0.20;99.90;;;;;;7367318;19;20619;-61
2023/03/08 07:57:56;;;;;;;14.73;11.07;;;-0.20;99.90;;;;;;7365406;19;20089;-63
2023/03/08 08:00:23;;;;;;;12.95;11.07;;;-0.10;99.90;;;;;;7365664;19;20041;-64
2023/03/08 08:02:52;;;;;;;12.93;11.60;;;-0.10;99.90;;;;;;7363185;19;20047;-64
2023/03/08 08:05:20;;;;;;;13.65;11.68;;;-0.10;99.90;;;;;;7361185;19;20595;-64
2023/03/08 08:07:48;;;;;;;13.88;11.95;;;-0.10;99.90;;;;;;7360292;19;20129;-64
2023/03/08 08:10:15;;;;;;;15.23;13.30;;;0.00;99.90;;;;;;7363191;19;20046;-64
2023/03/08 08:12:41;;;;;;;15.55;12.45;;;-0.10;99.90;;;;;;7363682;19;20098;-64
2023/03/08 08:15:08;;;;;;;17.92;12.95;;;-0.10;99.90;;;;;;7364838;19;20500;-65
2023/03/08 08:17:34;;;;;;;17.67;15.90;;;-0.10;99.90;;;;;;7363586;19;20046;-65
2023/03/08 08:20:05;;;;;;;17.65;15.55;;;-0.10;99.90;;;;;;7367080;19;20010;-66
2023/03/08 08:22:35;;;;;;;16.63;14.82;;;-0.20;99.90;;;;;;7363942;19;20015;-65
2023/03/08 08:25:05;;;;;;;;;;;-0.20;99.90;;;;;;7362871;19;20022;-65
2023/03/08 08:27:32;;;;;;;17.45;15.35;;;-0.20;99.90;;;;;;7360763;19;19975;-66
2023/03/08 08:29:59;;;;;;;19.48;15.70;;;-0.20;99.90;;;;;;7357268;19;20042;-65
2023/03/08 08:32:26;;;;;;;20.25;18.15;;;-0.10;99.90;;;;;;7361108;19;20014;-64
2023/03/08 08:34:52;;;;;;;54.65;20.67;;;0.00;99.90;;;;;;7359287;19;20472;-65
2023/03/08 08:37:19;;;;;;;28.15;19.33;;;0.00;99.90;;;;;;7363909;19;20010;-64
2023/03/08 08:39:46;;;;;;;20.23;17.58;;;-0.10;99.90;;;;;;7368364;19;20045;-61
2023/03/08 08:42:13;;;;;;;22.77;19.63;;;0.00;99.90;;;;;;7369883;19;20029;-61
2023/03/08 08:44:39;;;;;;;22.60;18.30;;;0.20;99.90;;;;;;7370044;19;20114;-61
2023/03/08 08:47:06;;;;;;;20.85;18.45;;;0.20;99.90;;;;;;7371570;19;20014;-62
2023/03/08 08:49:32;;;;;;;22.70;20.23;;;0.40;99.90;;;;;;7372616;19;20045;-62
2023/03/08 08:51:59;;;;;;;21.70;17.83;;;0.50;99.90;;;;;;7368068;19;20021;-61
2023/03/08 08:54:26;;;;;;;19.75;17.65;;;0.50;99.90;;;;;;7372123;19;20010;-62
2023/03/08 08:56:52;;;;;;;23.17;20.17;;;0.50;99.90;;;;;;7369260;19;20042;-61
2023/03/08 08:59:19;;;;;;;29.70;20.60;;;0.50;99.90;;;;;;7372445;19;20031;-62
2023/03/08 09:01:46;;;;;;;27.35;18.80;;;0.50;99.90;;;;;;7373102;19;20022;-62
2023/03/08 09:04:15;;;;;;;29.92;19.42;;;0.50;99.90;;;;;;7370193;19;20488;-62
2023/03/08 09:06:42;;;;;;;39.30;18.52;;;0.50;99.90;;;;;;7370893;19;20010;-62
2023/03/08 09:09:11;;;;;;;45.08;19.60;;;0.50;99.90;;;;;;7370636;19;20665;-62
2023/03/08 09:11:38;;;;;;;76.03;21.88;;;0.40;99.90;;;;;;7371404;19;20402;-65
2023/03/08 09:14:07;;;;;;;30.90;18.55;;;0.30;99.90;;;;;;7370746;19;20856;-62
2023/03/08 09:16:36;;;;;;;32.88;17.63;;;0.40;99.90;;;;;;7369598;19;20035;-61
2023/03/08 09:19:03;;;;;;;29.60;21.25;;;0.40;99.90;;;;;;7367510;19;20049;-61
2023/03/08 09:21:31;;;;;;;27.60;19.58;;;0.40;99.90;;;;;;7370699;19;20474;-62
2023/03/08 09:24:01;;;;;;;28.95;21.83;;;0.50;99.90;;;;;;7368517;19;20766;-61
2023/03/08 09:26:29;;;;;;;23.08;19.95;;;0.40;99.90;;;;;;7370220;19;20014;-62
2023/03/08 09:29:03;;;;;;;24.17;20.65;;;0.40;99.90;;;;;;7369832;19;20289;-61
2023/03/08 09:31:36;;;;;;;28.67;21.33;;;0.50;99.90;;;;;;7370211;19;20019;-61
2023/03/08 09:34:07;;;;;;;25.52;21.00;;;0.50;99.90;;;;;;7367921;19;20022;-61
2023/03/08 09:36:40;;;;;;;33.72;21.52;;;0.50;99.90;;;;;;7368480;19;20022;-61
2023/03/08 09:39:08;;;;;;;27.42;21.92;;;0.70;99.90;;;;;;7372978;19;20018;-61
2023/03/08 09:41:56;;;;;;;18.77;16.63;;;0.80;99.90;;;;;;7378823;19;20055;-63
2023/03/08 09:44:45;;;;;;;21.27;17.40;;;0.90;99.90;;;;;;7378037;19;20029;-62
2023/03/08 09:47:19;;;;;;;20.75;17.02;;;1.00;99.90;;;;;;7377639;19;20019;-62
2023/03/08 09:49:49;;;;;;;22.30;19.52;;;1.10;99.90;;;;;;7376499;19;20010;-62
2023/03/08 09:52:29;;;;;;;23.65;19.23;;;1.20;99.90;;;;;;7379683;19;20629;-62
2023/03/08 09:55:02;;;;;;;19.92;17.23;;;1.30;99.90;;;;;;7377386;19;20018;-62
2023/03/08 09:57:35;;;;;;;18.35;15.65;;;1.50;99.90;;;;;;7378006;19;20015;-62
2023/03/08 10:00:10;;;;;;;20.75;17.58;;;1.30;99.90;;;;;;7377863;19;20022;-62
2023/03/08 10:02:55;;;;;;;20.52;18.30;;;1.50;99.90;;;;;;7376626;19;20082;-62
2023/03/08 10:05:33;;;;;;;22.42;17.98;;;1.60;99.90;;;;;;7380210;19;20027;-62
2023/03/08 10:08:22;;;;;;;21.58;19.10;;;1.60;99.90;;;;;;7376582;19;20036;-63
2023/03/08 10:11:12;;;;;;;21.10;18.27;;;1.90;99.90;;;;;;7379187;19;20066;-62
2023/03/08 10:13:48;;;;;;;23.38;18.60;;;2.10;99.90;;;;;;7378060;19;20777;-62
2023/03/08 10:16:22;;;;;;;21.35;17.48;;;2.20;99.90;;;;;;7380970;19;20019;-62
2023/03/08 10:19:20;;;;;;;19.35;16.20;;;2.20;99.90;;;;;;7379474;19;20853;-63
2023/03/08 10:21:51;;;;;;;19.23;17.23;;;2.10;99.90;;;;;;7371621;19;20060;-63
2023/03/08 10:24:40;;;;;;;19.90;16.50;;;2.30;99.90;;;;;;7365749;19;20038;-63
2023/03/08 10:27:25;;;;;;;15.98;14.25;;;2.20;99.90;;;;;;7368053;19;20098;-63
2023/03/08 10:29:57;;;;;;;15.52;13.55;;;2.40;99.90;;;;;;7369502;19;20032;-64
2023/03/08 10:32:26;;;;;;;15.32;13.57;;;2.70;99.90;;;;;;7367159;19;20022;-63
2023/03/08 10:34:59;;;;;;;14.45;12.77;;;2.80;99.90;;;;;;7364599;19;20026;-63
2023/03/08 10:37:31;;;;;;;16.48;14.35;;;3.10;99.90;;;;;;7369511;19;20014;-63
2023/03/08 10:40:04;;;;;;;14.02;12.52;;;3.30;99.90;;;;;;7365834;19;20078;-64
2023/03/08 10:42:32;;;;;;;14.40;12.90;;;3.50;99.90;;;;;;7370294;19;20030;-63
2023/03/08 10:45:03;;;;;;;14.38;12.88;;;3.40;99.90;;;;;;7364908;19;20038;-63
2023/03/08 10:47:35;;;;;;;16.70;13.77;;;3.60;99.90;;;;;;7366649;19;20062;-63
2023/03/08 10:50:20;;;;;;;15.68;12.75;;;3.60;99.90;;;;;;7364913;19;20098;-63
2023/03/08 10:52:49;;;;;;;17.38;14.23;;;3.70;99.90;;;;;;7366260;19;20006;-63
2023/03/08 10:55:20;;;;;;;15.90;13.75;;;3.90;99.90;;;;;;7367191;19;20014;-63
2023/03/08 10:58:00;;;;;;;16.73;14.80;;;3.90;99.90;;;;;;7367693;19;20014;-63
2023/03/08 11:00:35;;;;;;;17.35;14.93;;;3.80;99.90;;;;;;7366597;19;20540;-66
2023/03/08 11:03:23;;;;;;;17.88;15.13;;;3.80;99.90;;;;;;7364361;19;20041;-66
2023/03/08 11:05:50;;;;;;;18.92;14.00;;;3.90;99.90;;;;;;7364638;19;20019;-66
2023/03/08 11:08:20;;;;;;;16.40;13.40;;;3.90;99.90;;;;;;7360482;19;20022;-63
2023/03/08 11:10:47;;;;;;;18.02;14.40;;;3.90;99.90;;;;;;7366810;19;20026;-65
2023/03/08 11:13:22;;;;;;;17.38;14.05;;;3.90;99.90;;;;;;7367587;19;20552;-66
2023/03/08 11:16:04;;;;;;;14.50;12.32;;;3.90;99.90;;;;;;7370032;19;20029;-66
2023/03/08 11:18:49;;;;;;;17.25;12.90;;;3.70;99.90;;;;;;7375648;19;20889;-66
2023/03/08 11:21:39;;;;;;;17.67;13.98;;;3.80;99.90;;;;;;7378411;19;20939;-66
2023/03/08 11:24:22;;;;;;;17.15;13.85;;;3.80;99.90;;;;;;7371930;19;20015;-65
2023/03/08 11:27:21;;;;;;;19.17;14.80;;;3.90;99.90;;;;;;7374391;19;20030;-65
2023/03/08 11:30:05;;;;;;;17.63;13.40;;;4.00;99.90;;;;;;7371589;19;20085;-65
2023/03/08 11:32:53;;;;;;;36.35;19.73;;;4.10;99.90;;;;;;7375773;19;20078;-65
2023/03/08 11:35:40;;;;;;;15.25;12.25;;;4.10;99.90;;;;;;7375430;19;20015;-65
2023/03/08 11:38:15;;;;;;;16.52;13.00;;;4.00;99.90;;;;;;7376430;19;20720;-65
2023/03/08 11:40:50;;;;;;;19.27;13.98;;;3.80;99.90;;;;;;7375057;19;20018;-65
2023/03/08 11:43:35;;;;;;;19.92;15.15;;;4.00;99.90;;;;;;7377035;19;20014;-65
2023/03/08 11:46:10;;;;;;;20.85;15.30;;;4.10;99.90;;;;;;7374396;19;20086;-65
2023/03/08 11:49:19;;;;;;;14.98;11.63;;;4.20;99.90;;;;;;7377231;19;20011;-63
2023/03/08 11:52:05;;;;;;;15.32;12.35;;;4.20;99.90;;;;;;7374264;19;20050;-65
2023/03/08 11:54:53;;;;;;;17.75;13.27;;;4.20;99.90;;;;;;7375649;19;20035;-66
2023/03/08 11:57:21;;;;;;;18.48;13.07;;;4.20;99.90;;;;;;7377615;19;20031;-65
2023/03/08 11:59:56;;;;;;;15.65;12.27;;;4.20;99.90;;;;;;7375653;19;20045;-65
2023/03/08 12:02:28;;;;;;;17.88;13.07;;;4.30;99.90;;;;;;7374551;19;20014;-65
2023/03/08 12:05:06;;;;;;;17.55;12.65;;;4.30;99.90;;;;;;7375300;19;20025;-65
2023/03/08 12:07:42;;;;;;;15.80;11.18;;;4.40;99.90;;;;;;7377511;19;20022;-65
2023/03/08 12:10:21;;;;;;;16.63;9.93;;;4.30;99.90;;;;;;7372694;19;20014;-65
2023/03/08 12:12:57;;;;;;;13.90;8.95;;;4.40;99.90;;;;;;7377605;19;20481;-65
2023/03/08 12:16:03;;;;;;;14.80;10.63;;;4.30;99.90;;;;;;7373088;19;20974;-65
2023/03/08 12:18:33;;;;;;;15.48;10.00;;;4.30;99.90;;;;;;7376038;19;20025;-65
2023/03/08 12:21:14;;;;;;;11.68;8.85;;;4.20;99.90;;;;;;7373201;19;20019;-65
2023/03/08 12:23:53;;;;;;;12.82;8.20;;;4.30;99.90;;;;;;7377821;19;20027;-65
2023/03/08 12:26:35;;;;;;;12.43;7.97;;;4.30;99.90;;;;;;7373166;19;20018;-65
2023/03/08 12:29:20;;;;;;;11.85;7.80;;;4.30;99.90;;;;;;7372574;19;20474;-65
2023/03/08 12:31:48;;;;;;;14.20;6.43;;;4.40;99.90;;;;;;7369653;19;20022;-65
2023/03/08 12:34:40;;;;;;;9.15;6.65;;;4.40;99.90;;;;;;7368869;19;20021;-65
2023/03/08 12:37:33;;;;;;;13.20;7.70;;;4.50;99.90;;;;;;7372662;19;20053;-63
2023/03/08 12:40:06;;;;;;;9.40;6.47;;;4.50;99.90;;;;;;7370697;19;20019;-63
2023/03/08 12:42:40;;;;;;;10.07;5.65;;;4.40;99.90;;;;;;7369265;19;20512;-63
2023/03/08 12:45:29;;;;;;;10.52;6.22;;;4.40;99.90;;;;;;7369676;19;20030;-63
2023/03/08 12:48:05;;;;;;;8.82;6.90;;;4.50;99.90;;;;;;7367141;19;20026;-63
2023/03/08 12:50:54;;;;;;;11.10;7.45;;;4.50;99.90;;;;;;7370709;19;20014;-63
2023/03/08 12:53:43;;;;;;;9.65;5.55;;;4.50;99.90;;;;;;7371787;19;20737;-62
2023/03/08 12:56:10;;;;;;;9.98;5.28;;;4.40;99.90;;;;;;7368187;19;20018;-62
2023/03/08 12:58:54;;;;;;;10.88;6.45;;;4.40;99.90;;;;;;7369980;19;20019;-62
2023/03/08 13:01:23;;;;;;;14.68;8.43;;;4.40;99.90;;;;;;7371651;19;20033;-67